sensor_id;sensor_type;location;lat;lon;timestamp;P1;durP1;ratioP1;P2;durP2;ratioP2
53833;SDS011;39735;51.432;5.482;2024-01-30T00:02:07;23.00;;;8.57;;
53833;SDS011;39735;51.432;5.482;2024-01-30T00:04:33;10.23;;;8.48;;
53833;SDS011;39735;51.432;5.482;2024-01-30T00:06:58;10.48;;;8.63;;
53833;SDS011;39735;51.432;5.482;2024-01-30T00:09:23;10.73;;;8.60;;
53833;SDS011;39735;51.432;5.482;2024-01-30T00:11:48;9.95;;;8.68;;
53833;SDS011;39735;51.432;5.482;2024-01-30T00:14:14;21.52;;;9.55;;
53833;SDS011;39735;51.432;5.482;2024-01-30T00:16:39;25.13;;;9.48;;
53833;SDS011;39735;51.432;5.482;2024-01-30T00:19:04;9.43;;;8.30;;
53833;SDS011;39735;51.432;5.482;2024-01-30T00:21:29;21.95;;;11.15;;
53833;SDS011;39735;51.432;5.482;2024-01-30T00:23:54;15.57;;;11.13;;
53833;SDS011;39735;51.432;5.482;2024-01-30T00:26:20;12.52;;;9.65;;
53833;SDS011;39735;51.432;5.482;2024-01-30T00:28:45;16.85;;;9.35;;
53833;SDS011;39735;51.432;5.482;2024-01-30T00:31:11;11.65;;;9.60;;
53833;SDS011;39735;51.432;5.482;2024-01-30T00:33:37;21.38;;;9.45;;
53833;SDS011;39735;51.432;5.482;2024-01-30T00:36:03;19.33;;;10.10;;
53833;SDS011;39735;51.432;5.482;2024-01-30T00:38:28;26.00;;;9.43;;
53833;SDS011;39735;51.432;5.482;2024-01-30T00:40:53;11.70;;;8.55;;
53833;SDS011;39735;51.432;5.482;2024-01-30T00:43:18;13.45;;;9.07;;
53833;SDS011;39735;51.432;5.482;2024-01-30T00:45:44;17.38;;;9.38;;
53833;SDS011;39735;51.432;5.482;2024-01-30T00:48:10;12.73;;;9.77;;
53833;SDS011;39735;51.432;5.482;2024-01-30T00:50:35;13.57;;;10.73;;
53833;SDS011;39735;51.432;5.482;2024-01-30T00:53:00;16.42;;;9.00;;
53833;SDS011;39735;51.432;5.482;2024-01-30T00:55:26;14.75;;;10.05;;
53833;SDS011;39735;51.432;5.482;2024-01-30T00:57:51;25.92;;;9.90;;
53833;SDS011;39735;51.432;5.482;2024-01-30T01:00:16;12.90;;;9.40;;
53833;SDS011;39735;51.432;5.482;2024-01-30T01:02:42;13.43;;;10.13;;
53833;SDS011;39735;51.432;5.482;2024-01-30T01:05:07;22.27;;;11.25;;
53833;SDS011;39735;51.432;5.482;2024-01-30T01:07:33;12.48;;;9.35;;
53833;SDS011;39735;51.432;5.482;2024-01-30T01:09:58;16.45;;;10.45;;
53833;SDS011;39735;51.432;5.482;2024-01-30T01:12:23;16.65;;;9.43;;
53833;SDS011;39735;51.432;5.482;2024-01-30T01:14:49;29.00;;;11.85;;
53833;SDS011;39735;51.432;5.482;2024-01-30T01:17:14;15.32;;;9.63;;
53833;SDS011;39735;51.432;5.482;2024-01-30T01:19:39;18.95;;;10.63;;
53833;SDS011;39735;51.432;5.482;2024-01-30T01:22:04;14.00;;;9.10;;
53833;SDS011;39735;51.432;5.482;2024-01-30T01:24:32;9.23;;;8.32;;
53833;SDS011;39735;51.432;5.482;2024-01-30T01:26:58;11.98;;;8.60;;
53833;SDS011;39735;51.432;5.482;2024-01-30T01:29:23;14.10;;;9.77;;
53833;SDS011;39735;51.432;5.482;2024-01-30T01:31:53;14.90;;;9.32;;
53833;SDS011;39735;51.432;5.482;2024-01-30T01:34:19;15.73;;;9.98;;
53833;SDS011;39735;51.432;5.482;2024-01-30T01:36:44;19.70;;;8.55;;
53833;SDS011;39735;51.432;5.482;2024-01-30T01:39:10;13.60;;;9.88;;
53833;SDS011;39735;51.432;5.482;2024-01-30T01:41:35;11.32;;;9.02;;
53833;SDS011;39735;51.432;5.482;2024-01-30T01:44:01;15.65;;;9.38;;
53833;SDS011;39735;51.432;5.482;2024-01-30T01:46:26;29.48;;;10.70;;
53833;SDS011;39735;51.432;5.482;2024-01-30T01:48:52;14.13;;;8.57;;
53833;SDS011;39735;51.432;5.482;2024-01-30T01:51:17;16.90;;;9.35;;
53833;SDS011;39735;51.432;5.482;2024-01-30T01:53:42;12.02;;;8.57;;
53833;SDS011;39735;51.432;5.482;2024-01-30T01:56:08;9.93;;;8.23;;
53833;SDS011;39735;51.432;5.482;2024-01-30T01:58:33;13.63;;;8.25;;
53833;SDS011;39735;51.432;5.482;2024-01-30T02:00:58;20.80;;;11.80;;
53833;SDS011;39735;51.432;5.482;2024-01-30T02:03:24;17.00;;;10.05;;
53833;SDS011;39735;51.432;5.482;2024-01-30T02:05:50;13.02;;;9.95;;
53833;SDS011;39735;51.432;5.482;2024-01-30T02:08:15;13.15;;;10.02;;
53833;SDS011;39735;51.432;5.482;2024-01-30T02:10:41;9.90;;;8.90;;
53833;SDS011;39735;51.432;5.482;2024-01-30T02:13:06;12.70;;;8.50;;
53833;SDS011;39735;51.432;5.482;2024-01-30T02:15:31;16.08;;;11.18;;
53833;SDS011;39735;51.432;5.482;2024-01-30T02:17:56;21.42;;;10.25;;
53833;SDS011;39735;51.432;5.482;2024-01-30T02:20:22;11.80;;;8.70;;
53833;SDS011;39735;51.432;5.482;2024-01-30T02:22:48;10.70;;;8.82;;
53833;SDS011;39735;51.432;5.482;2024-01-30T02:25:14;18.50;;;10.95;;
53833;SDS011;39735;51.432;5.482;2024-01-30T02:27:39;13.77;;;9.80;;
53833;SDS011;39735;51.432;5.482;2024-01-30T02:30:04;17.42;;;8.90;;
53833;SDS011;39735;51.432;5.482;2024-01-30T02:32:30;17.30;;;9.40;;
53833;SDS011;39735;51.432;5.482;2024-01-30T02:34:55;15.05;;;9.43;;
53833;SDS011;39735;51.432;5.482;2024-01-30T02:37:20;12.02;;;8.48;;
53833;SDS011;39735;51.432;5.482;2024-01-30T02:39:45;18.05;;;9.10;;
53833;SDS011;39735;51.432;5.482;2024-01-30T02:42:11;32.60;;;9.18;;
53833;SDS011;39735;51.432;5.482;2024-01-30T02:44:36;15.80;;;8.88;;
53833;SDS011;39735;51.432;5.482;2024-01-30T02:47:01;14.98;;;9.85;;
53833;SDS011;39735;51.432;5.482;2024-01-30T02:49:26;15.77;;;9.70;;
53833;SDS011;39735;51.432;5.482;2024-01-30T02:51:53;16.65;;;8.95;;
53833;SDS011;39735;51.432;5.482;2024-01-30T02:54:18;25.80;;;10.50;;
53833;SDS011;39735;51.432;5.482;2024-01-30T02:56:43;8.98;;;8.07;;
53833;SDS011;39735;51.432;5.482;2024-01-30T02:59:09;11.43;;;9.32;;
53833;SDS011;39735;51.432;5.482;2024-01-30T03:01:41;17.95;;;8.55;;
53833;SDS011;39735;51.432;5.482;2024-01-30T03:04:07;11.15;;;8.43;;
53833;SDS011;39735;51.432;5.482;2024-01-30T03:06:32;8.68;;;7.65;;
53833;SDS011;39735;51.432;5.482;2024-01-30T03:08:57;17.77;;;9.38;;
53833;SDS011;39735;51.432;5.482;2024-01-30T03:11:22;10.35;;;8.55;;
53833;SDS011;39735;51.432;5.482;2024-01-30T03:13:48;13.40;;;10.18;;
53833;SDS011;39735;51.432;5.482;2024-01-30T03:16:13;12.13;;;8.93;;
53833;SDS011;39735;51.432;5.482;2024-01-30T03:18:38;12.30;;;8.70;;
53833;SDS011;39735;51.432;5.482;2024-01-30T03:21:04;20.90;;;9.38;;
53833;SDS011;39735;51.432;5.482;2024-01-30T03:23:29;13.23;;;9.27;;
53833;SDS011;39735;51.432;5.482;2024-01-30T03:25:54;9.13;;;8.10;;
53833;SDS011;39735;51.432;5.482;2024-01-30T03:28:19;14.35;;;8.30;;
53833;SDS011;39735;51.432;5.482;2024-01-30T03:30:45;10.60;;;7.95;;
53833;SDS011;39735;51.432;5.482;2024-01-30T03:33:10;16.35;;;8.52;;
53833;SDS011;39735;51.432;5.482;2024-01-30T03:35:35;15.65;;;9.07;;
53833;SDS011;39735;51.432;5.482;2024-01-30T03:38:00;12.38;;;7.32;;
53833;SDS011;39735;51.432;5.482;2024-01-30T03:40:26;10.90;;;7.43;;
53833;SDS011;39735;51.432;5.482;2024-01-30T03:42:51;9.30;;;7.75;;
53833;SDS011;39735;51.432;5.482;2024-01-30T03:45:16;12.93;;;8.82;;
53833;SDS011;39735;51.432;5.482;2024-01-30T03:47:44;9.70;;;8.52;;
53833;SDS011;39735;51.432;5.482;2024-01-30T03:50:09;15.57;;;9.25;;
53833;SDS011;39735;51.432;5.482;2024-01-30T03:52:34;8.85;;;7.43;;
53833;SDS011;39735;51.432;5.482;2024-01-30T03:55:00;14.90;;;9.27;;
53833;SDS011;39735;51.432;5.482;2024-01-30T03:57:25;11.52;;;7.70;;
53833;SDS011;39735;51.432;5.482;2024-01-30T03:59:50;15.45;;;8.60;;
53833;SDS011;39735;51.432;5.482;2024-01-30T04:02:16;18.42;;;7.38;;
53833;SDS011;39735;51.432;5.482;2024-01-30T04:04:42;10.63;;;8.95;;
53833;SDS011;39735;51.432;5.482;2024-01-30T04:07:07;13.65;;;9.15;;
53833;SDS011;39735;51.432;5.482;2024-01-30T04:09:33;10.45;;;7.68;;
53833;SDS011;39735;51.432;5.482;2024-01-30T04:11:58;8.10;;;7.30;;
53833;SDS011;39735;51.432;5.482;2024-01-30T04:14:23;14.25;;;7.13;;
53833;SDS011;39735;51.432;5.482;2024-01-30T04:16:49;13.75;;;8.18;;
53833;SDS011;39735;51.432;5.482;2024-01-30T04:19:14;15.77;;;7.43;;
53833;SDS011;39735;51.432;5.482;2024-01-30T04:21:39;15.95;;;9.30;;
53833;SDS011;39735;51.432;5.482;2024-01-30T04:24:05;10.38;;;7.65;;
53833;SDS011;39735;51.432;5.482;2024-01-30T04:26:30;16.73;;;7.68;;
53833;SDS011;39735;51.432;5.482;2024-01-30T04:28:55;10.50;;;8.52;;
53833;SDS011;39735;51.432;5.482;2024-01-30T04:31:20;20.95;;;8.40;;
53833;SDS011;39735;51.432;5.482;2024-01-30T04:33:46;10.45;;;8.20;;
53833;SDS011;39735;51.432;5.482;2024-01-30T04:36:11;10.20;;;7.85;;
53833;SDS011;39735;51.432;5.482;2024-01-30T04:38:37;17.67;;;8.05;;
53833;SDS011;39735;51.432;5.482;2024-01-30T04:41:03;11.40;;;7.50;;
53833;SDS011;39735;51.432;5.482;2024-01-30T04:43:29;12.02;;;7.30;;
53833;SDS011;39735;51.432;5.482;2024-01-30T04:45:54;10.77;;;6.85;;
53833;SDS011;39735;51.432;5.482;2024-01-30T04:48:19;11.32;;;6.78;;
53833;SDS011;39735;51.432;5.482;2024-01-30T04:50:44;13.00;;;7.18;;
53833;SDS011;39735;51.432;5.482;2024-01-30T04:53:10;12.65;;;6.70;;
53833;SDS011;39735;51.432;5.482;2024-01-30T04:55:35;12.85;;;10.70;;
53833;SDS011;39735;51.432;5.482;2024-01-30T04:58:01;12.88;;;7.22;;
53833;SDS011;39735;51.432;5.482;2024-01-30T05:00:26;26.17;;;6.40;;
53833;SDS011;39735;51.432;5.482;2024-01-30T05:02:51;13.55;;;8.85;;
53833;SDS011;39735;51.432;5.482;2024-01-30T05:05:17;10.85;;;7.68;;
53833;SDS011;39735;51.432;5.482;2024-01-30T05:07:42;11.88;;;7.53;;
53833;SDS011;39735;51.432;5.482;2024-01-30T05:10:08;14.60;;;8.55;;
53833;SDS011;39735;51.432;5.482;2024-01-30T05:12:33;9.07;;;6.65;;
53833;SDS011;39735;51.432;5.482;2024-01-30T05:14:58;14.60;;;7.78;;
53833;SDS011;39735;51.432;5.482;2024-01-30T05:17:24;9.55;;;6.75;;
53833;SDS011;39735;51.432;5.482;2024-01-30T05:19:49;35.17;;;8.00;;
53833;SDS011;39735;51.432;5.482;2024-01-30T05:22:14;12.63;;;6.15;;
53833;SDS011;39735;51.432;5.482;2024-01-30T05:24:41;6.57;;;5.85;;
53833;SDS011;39735;51.432;5.482;2024-01-30T05:27:06;8.43;;;6.38;;
53833;SDS011;39735;51.432;5.482;2024-01-30T05:29:31;21.17;;;6.53;;
53833;SDS011;39735;51.432;5.482;2024-01-30T05:31:56;15.95;;;8.30;;
53833;SDS011;39735;51.432;5.482;2024-01-30T05:34:22;11.00;;;7.47;;
53833;SDS011;39735;51.432;5.482;2024-01-30T05:36:47;9.38;;;5.63;;
53833;SDS011;39735;51.432;5.482;2024-01-30T05:39:12;11.32;;;6.78;;
53833;SDS011;39735;51.432;5.482;2024-01-30T05:41:38;9.32;;;6.05;;
53833;SDS011;39735;51.432;5.482;2024-01-30T05:44:03;8.82;;;6.57;;
53833;SDS011;39735;51.432;5.482;2024-01-30T05:46:29;10.30;;;6.60;;
53833;SDS011;39735;51.432;5.482;2024-01-30T05:48:54;14.27;;;7.45;;
53833;SDS011;39735;51.432;5.482;2024-01-30T05:51:19;8.60;;;5.80;;
53833;SDS011;39735;51.432;5.482;2024-01-30T05:53:45;8.05;;;5.07;;
53833;SDS011;39735;51.432;5.482;2024-01-30T05:56:10;10.55;;;6.32;;
53833;SDS011;39735;51.432;5.482;2024-01-30T05:58:35;16.08;;;6.38;;
53833;SDS011;39735;51.432;5.482;2024-01-30T06:01:02;7.65;;;6.13;;
53833;SDS011;39735;51.432;5.482;2024-01-30T06:03:28;9.15;;;5.82;;
53833;SDS011;39735;51.432;5.482;2024-01-30T06:05:53;6.68;;;6.00;;
53833;SDS011;39735;51.432;5.482;2024-01-30T06:08:18;7.78;;;5.43;;
53833;SDS011;39735;51.432;5.482;2024-01-30T06:10:44;12.15;;;6.10;;
53833;SDS011;39735;51.432;5.482;2024-01-30T06:13:09;7.95;;;5.63;;
53833;SDS011;39735;51.432;5.482;2024-01-30T06:15:34;7.85;;;6.10;;
53833;SDS011;39735;51.432;5.482;2024-01-30T06:17:59;5.78;;;5.15;;
53833;SDS011;39735;51.432;5.482;2024-01-30T06:20:25;8.38;;;5.18;;
53833;SDS011;39735;51.432;5.482;2024-01-30T06:22:50;15.20;;;6.47;;
53833;SDS011;39735;51.432;5.482;2024-01-30T06:25:15;7.03;;;5.30;;
53833;SDS011;39735;51.432;5.482;2024-01-30T06:27:41;14.57;;;7.63;;
53833;SDS011;39735;51.432;5.482;2024-01-30T06:30:07;11.88;;;7.85;;
53833;SDS011;39735;51.432;5.482;2024-01-30T06:32:32;9.18;;;5.20;;
53833;SDS011;39735;51.432;5.482;2024-01-30T06:34:59;7.38;;;5.43;;
53833;SDS011;39735;51.432;5.482;2024-01-30T06:37:25;9.90;;;6.18;;
53833;SDS011;39735;51.432;5.482;2024-01-30T06:39:50;14.18;;;5.18;;
53833;SDS011;39735;51.432;5.482;2024-01-30T06:42:16;9.63;;;5.95;;
53833;SDS011;39735;51.432;5.482;2024-01-30T06:44:41;9.15;;;5.53;;
53833;SDS011;39735;51.432;5.482;2024-01-30T06:47:06;17.15;;;6.57;;
53833;SDS011;39735;51.432;5.482;2024-01-30T06:49:31;23.33;;;7.78;;
53833;SDS011;39735;51.432;5.482;2024-01-30T06:51:57;11.95;;;5.45;;
53833;SDS011;39735;51.432;5.482;2024-01-30T06:54:22;11.05;;;7.38;;
53833;SDS011;39735;51.432;5.482;2024-01-30T06:56:47;14.00;;;6.15;;
53833;SDS011;39735;51.432;5.482;2024-01-30T06:59:12;9.80;;;6.20;;
53833;SDS011;39735;51.432;5.482;2024-01-30T07:01:38;15.23;;;6.78;;
53833;SDS011;39735;51.432;5.482;2024-01-30T07:04:03;14.23;;;7.50;;
53833;SDS011;39735;51.432;5.482;2024-01-30T07:06:28;20.63;;;6.85;;
53833;SDS011;39735;51.432;5.482;2024-01-30T07:08:53;17.00;;;6.82;;
53833;SDS011;39735;51.432;5.482;2024-01-30T07:11:19;5.70;;;4.82;;
53833;SDS011;39735;51.432;5.482;2024-01-30T07:13:46;9.45;;;6.45;;
53833;SDS011;39735;51.432;5.482;2024-01-30T07:16:12;13.20;;;5.72;;
53833;SDS011;39735;51.432;5.482;2024-01-30T07:18:37;12.50;;;7.10;;
53833;SDS011;39735;51.432;5.482;2024-01-30T07:21:03;11.55;;;7.07;;
53833;SDS011;39735;51.432;5.482;2024-01-30T07:23:28;10.15;;;5.70;;
53833;SDS011;39735;51.432;5.482;2024-01-30T07:25:54;13.32;;;6.07;;
53833;SDS011;39735;51.432;5.482;2024-01-30T07:28:19;11.95;;;6.25;;
53833;SDS011;39735;51.432;5.482;2024-01-30T07:30:45;10.63;;;7.35;;
53833;SDS011;39735;51.432;5.482;2024-01-30T07:33:10;8.93;;;7.32;;
53833;SDS011;39735;51.432;5.482;2024-01-30T07:35:36;8.95;;;7.30;;
53833;SDS011;39735;51.432;5.482;2024-01-30T07:38:01;10.00;;;6.93;;
53833;SDS011;39735;51.432;5.482;2024-01-30T07:40:26;16.52;;;7.38;;
53833;SDS011;39735;51.432;5.482;2024-01-30T07:42:53;11.95;;;7.30;;
53833;SDS011;39735;51.432;5.482;2024-01-30T07:45:18;7.38;;;6.00;;
53833;SDS011;39735;51.432;5.482;2024-01-30T07:47:47;17.38;;;7.13;;
53833;SDS011;39735;51.432;5.482;2024-01-30T07:50:12;15.82;;;7.03;;
53833;SDS011;39735;51.432;5.482;2024-01-30T07:52:38;17.70;;;7.18;;
53833;SDS011;39735;51.432;5.482;2024-01-30T07:55:04;13.27;;;7.63;;
53833;SDS011;39735;51.432;5.482;2024-01-30T07:57:29;18.75;;;9.20;;
53833;SDS011;39735;51.432;5.482;2024-01-30T07:59:55;8.10;;;6.70;;
53833;SDS011;39735;51.432;5.482;2024-01-30T08:02:20;13.60;;;6.97;;
53833;SDS011;39735;51.432;5.482;2024-01-30T08:04:45;13.63;;;7.82;;
53833;SDS011;39735;51.432;5.482;2024-01-30T08:07:13;12.80;;;7.00;;
53833;SDS011;39735;51.432;5.482;2024-01-30T08:09:39;34.90;;;7.90;;
53833;SDS011;39735;51.432;5.482;2024-01-30T08:12:04;15.07;;;7.18;;
53833;SDS011;39735;51.432;5.482;2024-01-30T08:14:29;16.13;;;7.50;;
53833;SDS011;39735;51.432;5.482;2024-01-30T08:16:55;9.40;;;6.25;;
53833;SDS011;39735;51.432;5.482;2024-01-30T08:19:20;20.98;;;8.52;;
53833;SDS011;39735;51.432;5.482;2024-01-30T08:21:45;9.68;;;7.95;;
53833;SDS011;39735;51.432;5.482;2024-01-30T08:24:10;13.43;;;8.25;;
53833;SDS011;39735;51.432;5.482;2024-01-30T08:26:36;15.87;;;9.17;;
53833;SDS011;39735;51.432;5.482;2024-01-30T08:29:02;11.45;;;7.18;;
53833;SDS011;39735;51.432;5.482;2024-01-30T08:31:27;19.23;;;8.02;;
53833;SDS011;39735;51.432;5.482;2024-01-30T08:33:52;11.85;;;7.45;;
53833;SDS011;39735;51.432;5.482;2024-01-30T08:36:17;19.27;;;9.82;;
53833;SDS011;39735;51.432;5.482;2024-01-30T08:38:43;11.30;;;7.40;;
53833;SDS011;39735;51.432;5.482;2024-01-30T08:41:08;13.40;;;7.63;;
53833;SDS011;39735;51.432;5.482;2024-01-30T08:43:33;16.58;;;7.65;;
53833;SDS011;39735;51.432;5.482;2024-01-30T08:46:01;15.90;;;7.80;;
53833;SDS011;39735;51.432;5.482;2024-01-30T08:48:27;19.58;;;7.22;;
53833;SDS011;39735;51.432;5.482;2024-01-30T08:50:52;22.88;;;7.63;;
53833;SDS011;39735;51.432;5.482;2024-01-30T08:53:17;14.68;;;8.18;;
53833;SDS011;39735;51.432;5.482;2024-01-30T08:55:42;15.07;;;7.93;;
53833;SDS011;39735;51.432;5.482;2024-01-30T08:58:08;22.77;;;8.50;;
53833;SDS011;39735;51.432;5.482;2024-01-30T09:00:33;22.08;;;7.80;;
53833;SDS011;39735;51.432;5.482;2024-01-30T09:02:58;27.40;;;8.43;;
53833;SDS011;39735;51.432;5.482;2024-01-30T09:05:23;11.73;;;7.07;;
53833;SDS011;39735;51.432;5.482;2024-01-30T09:07:49;33.72;;;10.35;;
53833;SDS011;39735;51.432;5.482;2024-01-30T09:10:14;21.92;;;8.80;;
53833;SDS011;39735;51.432;5.482;2024-01-30T09:12:39;11.65;;;8.30;;
53833;SDS011;39735;51.432;5.482;2024-01-30T09:15:04;17.20;;;9.70;;
53833;SDS011;39735;51.432;5.482;2024-01-30T09:17:30;16.42;;;7.35;;
53833;SDS011;39735;51.432;5.482;2024-01-30T09:19:55;15.77;;;6.10;;
53833;SDS011;39735;51.432;5.482;2024-01-30T09:22:21;14.52;;;8.20;;
53833;SDS011;39735;51.432;5.482;2024-01-30T09:24:46;28.63;;;7.85;;
53833;SDS011;39735;51.432;5.482;2024-01-30T09:27:11;26.50;;;8.93;;
53833;SDS011;39735;51.432;5.482;2024-01-30T09:29:36;13.80;;;8.98;;
53833;SDS011;39735;51.432;5.482;2024-01-30T09:32:02;11.63;;;8.35;;
53833;SDS011;39735;51.432;5.482;2024-01-30T09:34:28;27.25;;;10.55;;
53833;SDS011;39735;51.432;5.482;2024-01-30T09:36:54;15.20;;;7.90;;
53833;SDS011;39735;51.432;5.482;2024-01-30T09:39:19;15.80;;;7.22;;
53833;SDS011;39735;51.432;5.482;2024-01-30T09:41:48;17.25;;;7.63;;
53833;SDS011;39735;51.432;5.482;2024-01-30T09:44:14;14.02;;;6.22;;
53833;SDS011;39735;51.432;5.482;2024-01-30T09:46:43;39.30;;;8.18;;
53833;SDS011;39735;51.432;5.482;2024-01-30T09:49:11;20.35;;;7.03;;
53833;SDS011;39735;51.432;5.482;2024-01-30T09:51:37;27.45;;;7.68;;
53833;SDS011;39735;51.432;5.482;2024-01-30T09:54:03;24.30;;;7.75;;
53833;SDS011;39735;51.432;5.482;2024-01-30T09:56:28;29.85;;;8.27;;
53833;SDS011;39735;51.432;5.482;2024-01-30T09:58:54;18.80;;;9.48;;
53833;SDS011;39735;51.432;5.482;2024-01-30T10:01:19;33.70;;;9.60;;
53833;SDS011;39735;51.432;5.482;2024-01-30T10:03:45;22.65;;;9.20;;
53833;SDS011;39735;51.432;5.482;2024-01-30T10:06:10;38.55;;;10.00;;
53833;SDS011;39735;51.432;5.482;2024-01-30T10:08:36;20.98;;;8.52;;
53833;SDS011;39735;51.432;5.482;2024-01-30T10:11:02;27.55;;;10.48;;
53833;SDS011;39735;51.432;5.482;2024-01-30T10:13:28;22.42;;;8.25;;
53833;SDS011;39735;51.432;5.482;2024-01-30T10:15:54;23.63;;;8.40;;
53833;SDS011;39735;51.432;5.482;2024-01-30T10:18:20;27.55;;;10.82;;
53833;SDS011;39735;51.432;5.482;2024-01-30T10:20:45;18.10;;;8.52;;
53833;SDS011;39735;51.432;5.482;2024-01-30T10:23:11;18.00;;;9.25;;
53833;SDS011;39735;51.432;5.482;2024-01-30T10:25:36;23.23;;;8.48;;
53833;SDS011;39735;51.432;5.482;2024-01-30T10:28:02;20.90;;;8.73;;
53833;SDS011;39735;51.432;5.482;2024-01-30T10:30:27;21.95;;;10.27;;
53833;SDS011;39735;51.432;5.482;2024-01-30T10:32:53;33.35;;;10.15;;
53833;SDS011;39735;51.432;5.482;2024-01-30T10:35:18;31.83;;;9.55;;
53833;SDS011;39735;51.432;5.482;2024-01-30T10:37:44;20.73;;;8.05;;
53833;SDS011;39735;51.432;5.482;2024-01-30T10:40:12;20.95;;;9.27;;
53833;SDS011;39735;51.432;5.482;2024-01-30T10:42:38;31.90;;;9.80;;
53833;SDS011;39735;51.432;5.482;2024-01-30T10:45:06;19.15;;;8.45;;
53833;SDS011;39735;51.432;5.482;2024-01-30T10:47:34;28.00;;;10.85;;
53833;SDS011;39735;51.432;5.482;2024-01-30T10:50:00;29.73;;;9.98;;
53833;SDS011;39735;51.432;5.482;2024-01-30T10:52:26;32.63;;;9.48;;
53833;SDS011;39735;51.432;5.482;2024-01-30T10:54:54;23.17;;;9.77;;
53833;SDS011;39735;51.432;5.482;2024-01-30T10:57:19;32.95;;;10.50;;
53833;SDS011;39735;51.432;5.482;2024-01-30T10:59:46;24.20;;;8.63;;
53833;SDS011;39735;51.432;5.482;2024-01-30T11:02:12;24.13;;;9.45;;
53833;SDS011;39735;51.432;5.482;2024-01-30T11:04:38;32.33;;;8.75;;
53833;SDS011;39735;51.432;5.482;2024-01-30T11:07:27;27.45;;;10.80;;
53833;SDS011;39735;51.432;5.482;2024-01-30T11:09:52;13.35;;;8.98;;
53833;SDS011;39735;51.432;5.482;2024-01-30T11:12:24;15.00;;;7.90;;
53833;SDS011;39735;51.432;5.482;2024-01-30T11:14:50;32.20;;;10.05;;
53833;SDS011;39735;51.432;5.482;2024-01-30T11:17:27;13.77;;;7.75;;
53833;SDS011;39735;51.432;5.482;2024-01-30T11:19:52;27.83;;;10.45;;
53833;SDS011;39735;51.432;5.482;2024-01-30T11:22:20;22.25;;;10.80;;
53833;SDS011;39735;51.432;5.482;2024-01-30T11:24:45;22.70;;;11.05;;
53833;SDS011;39735;51.432;5.482;2024-01-30T11:27:11;21.17;;;10.13;;
53833;SDS011;39735;51.432;5.482;2024-01-30T11:29:38;24.15;;;9.57;;
53833;SDS011;39735;51.432;5.482;2024-01-30T11:32:05;18.73;;;9.55;;
53833;SDS011;39735;51.432;5.482;2024-01-30T11:34:31;22.75;;;8.65;;
53833;SDS011;39735;51.432;5.482;2024-01-30T11:37:03;16.38;;;7.22;;
53833;SDS011;39735;51.432;5.482;2024-01-30T11:39:31;26.15;;;9.57;;
53833;SDS011;39735;51.432;5.482;2024-01-30T11:41:57;25.42;;;9.13;;
53833;SDS011;39735;51.432;5.482;2024-01-30T11:44:23;23.35;;;10.57;;
53833;SDS011;39735;51.432;5.482;2024-01-30T11:46:49;27.65;;;9.77;;
53833;SDS011;39735;51.432;5.482;2024-01-30T11:49:14;23.67;;;9.85;;
53833;SDS011;39735;51.432;5.482;2024-01-30T11:51:39;12.40;;;8.63;;
53833;SDS011;39735;51.432;5.482;2024-01-30T11:54:05;30.65;;;9.60;;
53833;SDS011;39735;51.432;5.482;2024-01-30T11:56:30;15.73;;;7.05;;
53833;SDS011;39735;51.432;5.482;2024-01-30T11:58:55;11.35;;;6.60;;
53833;SDS011;39735;51.432;5.482;2024-01-30T12:01:21;22.83;;;7.78;;
53833;SDS011;39735;51.432;5.482;2024-01-30T12:03:50;31.10;;;9.05;;
53833;SDS011;39735;51.432;5.482;2024-01-30T12:06:15;20.27;;;7.82;;
53833;SDS011;39735;51.432;5.482;2024-01-30T12:08:41;31.92;;;10.70;;
53833;SDS011;39735;51.432;5.482;2024-01-30T12:11:06;25.70;;;9.32;;
53833;SDS011;39735;51.432;5.482;2024-01-30T12:13:31;29.67;;;7.93;;
53833;SDS011;39735;51.432;5.482;2024-01-30T12:15:57;24.58;;;10.52;;
53833;SDS011;39735;51.432;5.482;2024-01-30T12:18:22;11.73;;;6.35;;
53833;SDS011;39735;51.432;5.482;2024-01-30T12:20:57;47.25;;;8.23;;
53833;SDS011;39735;51.432;5.482;2024-01-30T12:23:22;19.52;;;8.77;;
53833;SDS011;39735;51.432;5.482;2024-01-30T12:25:50;25.92;;;8.45;;
53833;SDS011;39735;51.432;5.482;2024-01-30T12:28:16;13.73;;;8.52;;
53833;SDS011;39735;51.432;5.482;2024-01-30T12:30:41;22.90;;;8.25;;
53833;SDS011;39735;51.432;5.482;2024-01-30T12:33:06;23.10;;;8.35;;
53833;SDS011;39735;51.432;5.482;2024-01-30T12:35:34;25.92;;;7.55;;
53833;SDS011;39735;51.432;5.482;2024-01-30T12:37:59;14.68;;;6.22;;
53833;SDS011;39735;51.432;5.482;2024-01-30T12:40:24;15.55;;;6.60;;
53833;SDS011;39735;51.432;5.482;2024-01-30T12:42:51;13.60;;;6.35;;
53833;SDS011;39735;51.432;5.482;2024-01-30T12:45:16;18.70;;;5.80;;
53833;SDS011;39735;51.432;5.482;2024-01-30T12:47:46;21.10;;;5.15;;
53833;SDS011;39735;51.432;5.482;2024-01-30T12:50:11;10.43;;;4.38;;
53833;SDS011;39735;51.432;5.482;2024-01-30T12:52:37;13.30;;;2.90;;
53833;SDS011;39735;51.432;5.482;2024-01-30T12:55:02;18.65;;;4.05;;
53833;SDS011;39735;51.432;5.482;2024-01-30T12:57:29;10.32;;;4.07;;
53833;SDS011;39735;51.432;5.482;2024-01-30T12:59:54;7.32;;;3.45;;
53833;SDS011;39735;51.432;5.482;2024-01-30T13:02:19;8.38;;;2.15;;
53833;SDS011;39735;51.432;5.482;2024-01-30T13:04:44;12.05;;;3.83;;
53833;SDS011;39735;51.432;5.482;2024-01-30T13:07:10;14.00;;;1.38;;
53833;SDS011;39735;51.432;5.482;2024-01-30T13:09:36;24.58;;;3.13;;
53833;SDS011;39735;51.432;5.482;2024-01-30T13:12:01;8.13;;;1.90;;
53833;SDS011;39735;51.432;5.482;2024-01-30T13:14:27;5.20;;;1.55;;
53833;SDS011;39735;51.432;5.482;2024-01-30T13:16:52;7.13;;;1.23;;
53833;SDS011;39735;51.432;5.482;2024-01-30T13:19:18;6.50;;;1.58;;
53833;SDS011;39735;51.432;5.482;2024-01-30T13:21:43;12.43;;;1.85;;
53833;SDS011;39735;51.432;5.482;2024-01-30T13:24:08;9.35;;;1.48;;
53833;SDS011;39735;51.432;5.482;2024-01-30T13:26:34;9.57;;;3.25;;
53833;SDS011;39735;51.432;5.482;2024-01-30T13:29:00;6.82;;;1.50;;
53833;SDS011;39735;51.432;5.482;2024-01-30T13:31:25;3.63;;;0.82;;
53833;SDS011;39735;51.432;5.482;2024-01-30T13:33:52;8.05;;;0.93;;
53833;SDS011;39735;51.432;5.482;2024-01-30T13:36:17;9.10;;;0.85;;
53833;SDS011;39735;51.432;5.482;2024-01-30T13:38:42;5.15;;;1.27;;
53833;SDS011;39735;51.432;5.482;2024-01-30T13:41:08;11.70;;;0.88;;
53833;SDS011;39735;51.432;5.482;2024-01-30T13:43:33;10.13;;;1.88;;
53833;SDS011;39735;51.432;5.482;2024-01-30T13:45:58;12.68;;;3.35;;
53833;SDS011;39735;51.432;5.482;2024-01-30T13:48:24;5.63;;;1.88;;
53833;SDS011;39735;51.432;5.482;2024-01-30T13:50:49;6.93;;;1.35;;
53833;SDS011;39735;51.432;5.482;2024-01-30T13:53:15;2.63;;;0.98;;
53833;SDS011;39735;51.432;5.482;2024-01-30T13:55:40;15.02;;;2.70;;
53833;SDS011;39735;51.432;5.482;2024-01-30T13:58:05;9.02;;;1.08;;
53833;SDS011;39735;51.432;5.482;2024-01-30T14:00:31;8.73;;;1.55;;
53833;SDS011;39735;51.432;5.482;2024-01-30T14:02:56;10.45;;;1.15;;
53833;SDS011;39735;51.432;5.482;2024-01-30T14:05:23;5.00;;;0.93;;
53833;SDS011;39735;51.432;5.482;2024-01-30T14:07:48;4.88;;;1.40;;
53833;SDS011;39735;51.432;5.482;2024-01-30T14:10:15;10.60;;;1.55;;
53833;SDS011;39735;51.432;5.482;2024-01-30T14:12:41;9.00;;;1.05;;
53833;SDS011;39735;51.432;5.482;2024-01-30T14:15:07;7.78;;;1.75;;
53833;SDS011;39735;51.432;5.482;2024-01-30T14:17:33;7.55;;;1.92;;
53833;SDS011;39735;51.432;5.482;2024-01-30T14:19:58;8.23;;;1.60;;
53833;SDS011;39735;51.432;5.482;2024-01-30T14:22:23;9.35;;;1.15;;
53833;SDS011;39735;51.432;5.482;2024-01-30T14:24:48;8.07;;;1.15;;
53833;SDS011;39735;51.432;5.482;2024-01-30T14:27:14;6.68;;;2.25;;